Anglian Lady — VOLP — position and weather

sailwx.info

Track history (hours):
 
Tides and Currents Weather Stations Pressure Air Temp Water Temp Dewpoint Dewpoint Depression Visibility Wind Speed Wind Dir Waves Ship Positions

Anglian Lady

Last reported at 2016-Jun-26 00:33 UTC. Time now 2016-Jun-29 23:43 UTC.
Position N 45°15' W 085°44'.

Length 32 m.

Type: Tug. MMSI: 316002238.

Date/timePositionNaut miles runAvg speedWind from/ knotsBaromVisibWave heightAir tempDewpointWater temp
2016-Jun-26 00:33N 45°15' W 085°44'7 7.0
2016-Jun-25 23:33N 45°21' W 085°38'5 5.4
2016-Jun-25 22:33N 45°25' W 085°34'9 7.9
2016-Jun-25 21:27N 45°32' W 085°26'7 8.1
2016-Jun-25 20:33N 45°37' W 085°20'8 8.0
2016-Jun-25 19:33N 45°44' W 085°13'7 7.1
2016-Jun-25 18:33N 45°50' W 085°07'8 7.8
2016-Jun-25 17:33N 45°50' W 084°56'9 7.9
2016-Jun-25 16:23N 45°49' W 084°42'25 7.8
2016-Jun-25 13:13N 45°54' W 084°08'5 7.9
2016-Jun-25 12:32N 45°55' W 084°00'  
2016-Jun-23 05:24N 45°51' W 084°19'6 6.7
2016-Jun-23 04:34N 45°51' W 084°27'7 6.7
2016-Jun-23 03:33N 45°51' W 084°36'7 6.6
2016-Jun-23 02:33N 45°49' W 084°45'7 6.6
2016-Jun-23 01:33N 45°49' W 084°55'7 6.6
2016-Jun-23 00:33N 45°50' W 085°04'7 5.8
2016-Jun-22 23:24N 45°44' W 085°10'6 6.9
2016-Jun-22 22:33N 45°40' W 085°15'7 6.9
2016-Jun-22 21:33N 45°34' W 085°21'7 6.9
2016-Jun-22 20:29N 45°28' W 085°27'7 7.0
2016-Jun-22 19:33N 45°23' W 085°33'7 7.1
2016-Jun-22 18:33N 45°17' W 085°39'7 7.0
2016-Jun-22 17:33N 45°12' W 085°45'7 6.8
2016-Jun-22 16:33N 45°06' W 085°50'8 7.6
2016-Jun-22 15:33N 45°00' W 085°57'  
2016-Jun-18 20:23N 44°56' W 086°10'7 8.2
2016-Jun-18 19:33N 44°59' W 086°02'8 7.8
2016-Jun-18 18:33N 45°04' W 085°54'8 8.0
2016-Jun-18 17:34N 45°11' W 085°48'8 8.1
2016-Jun-18 16:33N 45°18' W 085°41'8 8.0
2016-Jun-18 15:33N 45°24' W 085°35'8 8.1
2016-Jun-18 14:33N 45°31' W 085°28'8 7.9
2016-Jun-18 13:34N 45°37' W 085°21'8 7.9
2016-Jun-18 12:34N 45°43' W 085°14'7 7.2
2016-Jun-18 11:34N 45°49' W 085°08'8 7.5
2016-Jun-18 10:33N 45°50' W 084°57'8 8.2
2016-Jun-18 09:34N 45°49' W 084°46'8 8.1
2016-Jun-18 08:33N 45°51' W 084°34'8 8.1
2016-Jun-18 07:31N 45°52' W 084°22'8 8.1
2016-Jun-18 06:33N 45°53' W 084°11'8 8.2
2016-Jun-18 05:33N 45°55' W 083°60'6 6.4
2016-Jun-18 04:33N 45°60' W 083°54'10 6.5
2016-Jun-18 03:06N 46°08' W 084°01'4 7.2
2016-Jun-18 02:33N 46°11' W 084°05'24 2.3
2016-Jun-17 16:08N 46°31' W 084°22'0 0.0
2016-Jun-17 15:33N 46°31' W 084°22'  
Track history (hours):
 
Tides and Currents Weather Stations Pressure Air Temp Water Temp Dewpoint Dewpoint Depression Visibility Wind Speed Wind Dir Waves Ship Positions

Anglian Lady

Last reported at 2016-Jun-26 00:33 UTC. Time now 2016-Jun-29 23:43 UTC.
Position N 45°15' W 085°44'.

Length 32 m.

Type: Tug. MMSI: 316002238.

Date/timePositionNaut miles runAvg speedWind from/ knotsBaromVisibWave heightAir tempDewpointWater temp
2016-Jun-26 00:33N 45°15' W 085°44'7 7.0
2016-Jun-25 23:33N 45°21' W 085°38'5 5.4
2016-Jun-25 22:33N 45°25' W 085°34'9 7.9
2016-Jun-25 21:27N 45°32' W 085°26'7 8.1
2016-Jun-25 20:33N 45°37' W 085°20'8 8.0
2016-Jun-25 19:33N 45°44' W 085°13'7 7.1
2016-Jun-25 18:33N 45°50' W 085°07'8 7.8
2016-Jun-25 17:33N 45°50' W 084°56'9 7.9
2016-Jun-25 16:23N 45°49' W 084°42'25 7.8
2016-Jun-25 13:13N 45°54' W 084°08'5 7.9
2016-Jun-25 12:32N 45°55' W 084°00'  
2016-Jun-23 05:24N 45°51' W 084°19'6 6.7
2016-Jun-23 04:34N 45°51' W 084°27'7 6.7
2016-Jun-23 03:33N 45°51' W 084°36'7 6.6
2016-Jun-23 02:33N 45°49' W 084°45'7 6.6
2016-Jun-23 01:33N 45°49' W 084°55'7 6.6
2016-Jun-23 00:33N 45°50' W 085°04'7 5.8
2016-Jun-22 23:24N 45°44' W 085°10'6 6.9
2016-Jun-22 22:33N 45°40' W 085°15'7 6.9
2016-Jun-22 21:33N 45°34' W 085°21'7 6.9
2016-Jun-22 20:29N 45°28' W 085°27'7 7.0
2016-Jun-22 19:33N 45°23' W 085°33'7 7.1
2016-Jun-22 18:33N 45°17' W 085°39'7 7.0
2016-Jun-22 17:33N 45°12' W 085°45'7 6.8
2016-Jun-22 16:33N 45°06' W 085°50'8 7.6
2016-Jun-22 15:33N 45°00' W 085°57'  
2016-Jun-18 20:23N 44°56' W 086°10'7 8.2
2016-Jun-18 19:33N 44°59' W 086°02'8 7.8
2016-Jun-18 18:33N 45°04' W 085°54'8 8.0
2016-Jun-18 17:34N 45°11' W 085°48'8 8.1
2016-Jun-18 16:33N 45°18' W 085°41'8 8.0
2016-Jun-18 15:33N 45°24' W 085°35'8 8.1
2016-Jun-18 14:33N 45°31' W 085°28'8 7.9
2016-Jun-18 13:34N 45°37' W 085°21'8 7.9
2016-Jun-18 12:34N 45°43' W 085°14'7 7.2
2016-Jun-18 11:34N 45°49' W 085°08'8 7.5
2016-Jun-18 10:33N 45°50' W 084°57'8 8.2
2016-Jun-18 09:34N 45°49' W 084°46'8 8.1
2016-Jun-18 08:33N 45°51' W 084°34'8 8.1
2016-Jun-18 07:31N 45°52' W 084°22'8 8.1
2016-Jun-18 06:33N 45°53' W 084°11'8 8.2
2016-Jun-18 05:33N 45°55' W 083°60'6 6.4
2016-Jun-18 04:33N 45°60' W 083°54'10 6.5
2016-Jun-18 03:06N 46°08' W 084°01'4 7.2
2016-Jun-18 02:33N 46°11' W 084°05'24 2.3
2016-Jun-17 16:08N 46°31' W 084°22'0 0.0
2016-Jun-17 15:33N 46°31' W 084°22'  

Dump ship's entire track history